createdAt,value
2023-05-16T00:02:03.889Z,98122.72
2023-05-16T00:04:38.220Z,98132.34
2023-05-16T00:07:10.208Z,98129.59
2023-05-16T00:09:45.943Z,98127.59
2023-05-16T00:12:19.758Z,98112.94
2023-05-16T00:14:53.673Z,98119.41
2023-05-16T00:17:28.894Z,98130.03
2023-05-16T00:20:03.044Z,98126.06
2023-05-16T00:22:36.312Z,98128.47
2023-05-16T00:25:09.455Z,98119.84
2023-05-16T00:27:42.350Z,98119.91
2023-05-16T00:30:15.067Z,98117.50
2023-05-16T00:32:48.268Z,98116.13
2023-05-16T00:35:20.769Z,98110.97
2023-05-16T00:37:55.450Z,98103.41
2023-05-16T00:40:28.217Z,98112.72
2023-05-16T00:43:01.564Z,98108.38
2023-05-16T00:45:33.508Z,98115.34
2023-05-16T00:48:07.448Z,98111.50
2023-05-16T00:50:39.454Z,98112.69
2023-05-16T00:53:12.678Z,98113.34
2023-05-16T00:55:45.256Z,98117.44
2023-05-16T00:58:18.798Z,98120.63
2023-05-16T01:00:51.218Z,98114.03
2023-05-16T01:03:24.235Z,98122.88
2023-05-16T01:05:58.559Z,98116.44
2023-05-16T01:08:31.040Z,98124.19
2023-05-16T01:11:27.835Z,98120.31
2023-05-16T01:14:06.296Z,98123.06
2023-05-16T01:17:00.155Z,98116.84
2023-05-16T01:19:47.938Z,98122.38
2023-05-16T01:22:37.988Z,98126.88
2023-05-16T01:25:29.343Z,98117.22
2023-05-16T01:28:03.008Z,98120.84
2023-05-16T01:30:39.799Z,98122.00
2023-05-16T01:33:13.878Z,98115.06
2023-05-16T01:36:13.438Z,98110.00
2023-05-16T01:39:33.544Z,98117.03
2023-05-16T01:42:09.925Z,98117.31
2023-05-16T01:45:01.115Z,98116.28
2023-05-16T01:47:37.324Z,98119.72
2023-05-16T01:50:17.797Z,98119.50
2023-05-16T01:53:11.758Z,98116.66
2023-05-16T01:55:51.431Z,98122.41
2023-05-16T01:58:29.661Z,98117.44
2023-05-16T02:01:05.585Z,98123.78
2023-05-16T02:03:38.684Z,98110.97
2023-05-16T02:06:12.342Z,98107.41
2023-05-16T02:08:45.430Z,98117.03
2023-05-16T02:11:17.930Z,98122.31
2023-05-16T02:13:50.199Z,98117.31
2023-05-16T02:16:22.084Z,98116.00
2023-05-16T02:18:54.888Z,98118.22
2023-05-16T02:21:27.928Z,98118.94
2023-05-16T02:24:00.651Z,98117.00
2023-05-16T02:26:32.577Z,98112.53
2023-05-16T02:29:06.192Z,98115.59
2023-05-16T02:31:38.277Z,98113.75
2023-05-16T02:34:11.350Z,98108.63
2023-05-16T02:36:43.705Z,98119.31
2023-05-16T02:39:16.016Z,98119.38
2023-05-16T02:41:48.407Z,98108.03
2023-05-16T02:44:21.095Z,98115.28
2023-05-16T02:46:53.071Z,98104.63
2023-05-16T02:49:27.150Z,98110.09
2023-05-16T02:51:59.532Z,98106.81
2023-05-16T02:54:32.697Z,98115.09
2023-05-16T02:57:04.883Z,98107.69
2023-05-16T02:59:38.161Z,98108.84
2023-05-16T03:02:11.330Z,98107.41
2023-05-16T03:04:45.226Z,98100.97
2023-05-16T03:07:18.283Z,98107.69
2023-05-16T03:09:51.395Z,98113.75
2023-05-16T03:12:24.061Z,98106.25
2023-05-16T03:14:56.013Z,98105.50
2023-05-16T03:17:29.286Z,98113.00
2023-05-16T03:20:03.871Z,98112.50
2023-05-16T03:22:36.589Z,98115.28
2023-05-16T03:25:08.831Z,98108.00
2023-05-16T03:27:46.463Z,98117.41
2023-05-16T03:30:20.001Z,98118.69
2023-05-16T03:32:53.288Z,98117.41
2023-05-16T03:35:26.335Z,98119.63
2023-05-16T03:37:58.510Z,98118.50
2023-05-16T03:40:32.267Z,98121.78
2023-05-16T03:43:05.306Z,98121.06
2023-05-16T03:48:32.610Z,98116.47
2023-05-16T03:51:05.862Z,98121.81
2023-05-16T03:53:38.824Z,98120.53
2023-05-16T03:56:10.709Z,98109.38
2023-05-16T03:58:46.044Z,98114.66
2023-05-16T04:01:20.121Z,98114.66
2023-05-16T04:03:53.331Z,98119.28
2023-05-16T04:06:26.273Z,98123.31
2023-05-16T04:08:58.292Z,98135.88
2023-05-16T04:11:31.474Z,98140.47
2023-05-16T04:14:24.766Z,98151.09
2023-05-16T04:16:56.803Z,98154.34
2023-05-16T04:19:29.610Z,98140.53
2023-05-16T04:22:01.950Z,98141.16
2023-05-16T04:24:34.549Z,98150.38
2023-05-16T04:27:10.583Z,98153.72
2023-05-16T04:29:43.911Z,98154.41
2023-05-16T04:32:17.358Z,98157.72
2023-05-16T04:34:53.655Z,98165.00
2023-05-16T04:37:25.637Z,98157.72
2023-05-16T04:39:59.393Z,98162.28
2023-05-16T04:42:32.644Z,98162.28
2023-05-16T04:45:07.136Z,98164.31
2023-05-16T04:47:40.815Z,98169.50
2023-05-16T04:50:13.622Z,98165.53
2023-05-16T04:52:45.552Z,98166.22
2023-05-16T04:55:18.500Z,98166.91
2023-05-16T04:57:51.257Z,98168.22
2023-05-16T05:00:23.650Z,98164.91
2023-05-16T05:02:57.508Z,98166.22
2023-05-16T05:05:30.680Z,98173.50
2023-05-16T05:08:03.368Z,98173.50
2023-05-16T05:10:35.875Z,98172.84
2023-05-16T05:13:08.873Z,98183.47
2023-05-16T05:15:41.191Z,98184.78
2023-05-16T05:18:14.558Z,98184.81
2023-05-16T05:20:47.085Z,98182.81
2023-05-16T05:23:20.378Z,98186.72
2023-05-16T05:25:52.732Z,98190.72
2023-05-16T05:28:26.056Z,98186.72
2023-05-16T05:30:58.500Z,98184.16
2023-05-16T05:33:31.376Z,98187.44
2023-05-16T05:36:05.178Z,98190.00
2023-05-16T05:41:30.378Z,98190.13
2023-05-16T05:44:04.564Z,98190.13
2023-05-16T05:46:37.937Z,98194.72
2023-05-16T05:49:10.353Z,98188.09
2023-05-16T05:51:44.155Z,98194.09
2023-05-16T05:54:16.802Z,98195.47
2023-05-16T05:56:51.625Z,98196.13
2023-05-16T05:59:24.599Z,98190.16
2023-05-16T06:01:59.737Z,98189.59
2023-05-16T06:04:33.328Z,98187.66
2023-05-16T06:07:07.429Z,98193.50
2023-05-16T06:09:39.852Z,98195.53
2023-05-16T06:12:13.028Z,98196.84
2023-05-16T06:14:47.757Z,98202.13
2023-05-16T06:17:20.921Z,98198.22
2023-05-16T06:19:52.790Z,98202.88
2023-05-16T06:22:26.086Z,98205.53
2023-05-16T06:24:58.420Z,98212.09
2023-05-16T06:27:33.485Z,98214.75
2023-05-16T06:30:06.541Z,98219.41
2023-05-16T06:32:42.087Z,98213.41
2023-05-16T06:35:14.100Z,98216.72
2023-05-16T06:37:48.381Z,98229.28
2023-05-16T06:40:20.771Z,98226.00
2023-05-16T06:42:53.550Z,98228.84
2023-05-16T06:45:26.959Z,98224.00
2023-05-16T06:48:01.053Z,98225.84
2023-05-16T06:50:54.928Z,98220.66
2023-05-16T06:53:28.015Z,98228.59
2023-05-16T06:56:00.429Z,98236.53
2023-05-16T06:58:33.807Z,98238.50
2023-05-16T07:01:05.943Z,98229.97
2023-05-16T07:03:40.244Z,98247.06
2023-05-16T07:06:12.647Z,98238.50
2023-05-16T07:08:46.143Z,98245.78
2023-05-16T07:11:18.535Z,98243.81
2023-05-16T07:13:52.831Z,98237.19
2023-05-16T07:16:28.404Z,98239.84
2023-05-16T07:21:55.235Z,98247.13
2023-05-16T07:24:30.088Z,98245.78
2023-05-16T07:27:02.107Z,98241.88
2023-05-16T07:29:37.314Z,98243.88
2023-05-16T07:32:09.739Z,98251.72
2023-05-16T07:34:43.015Z,98251.03
2023-05-16T07:37:16.199Z,98254.38
2023-05-16T07:39:51.098Z,98258.31
2023-05-16T07:42:25.821Z,98264.94
2023-05-16T07:50:47.273Z,98261.63
2023-05-16T07:53:22.790Z,98265.59
2023-05-16T07:55:57.417Z,98255.66
2023-05-16T07:58:30.135Z,98253.66
2023-05-16T08:01:02.149Z,98264.94
2023-05-16T08:03:39.122Z,98258.97
2023-05-16T08:06:12.589Z,98266.22
2023-05-16T08:08:48.068Z,98266.91
2023-05-16T08:11:22.592Z,98270.19
2023-05-16T08:13:56.602Z,98273.47
2023-05-16T08:16:31.409Z,98271.53
2023-05-16T08:19:05.223Z,98278.09
2023-05-16T08:21:38.117Z,98272.16
2023-05-16T08:24:32.406Z,98277.44
2023-05-16T08:27:05.109Z,98280.06
2023-05-16T08:29:37.853Z,98279.38
2023-05-16T08:32:11.124Z,98285.31
2023-05-16T08:34:47.513Z,98282.69
2023-05-16T08:37:19.498Z,98289.28
2023-05-16T08:39:56.062Z,98288.63
2023-05-16T08:42:28.496Z,98287.25
2023-05-16T08:45:02.182Z,98286.56
2023-05-16T08:47:36.943Z,98290.50
2023-05-16T08:50:11.325Z,98289.25
2023-05-16T08:52:45.972Z,98283.97
2023-05-16T08:55:23.641Z,98287.97
2023-05-16T08:57:57.799Z,98288.66
2023-05-16T09:00:34.286Z,98284.00
2023-05-16T09:03:07.459Z,98289.28
2023-05-16T09:05:40.387Z,98286.66
2023-05-16T09:08:12.512Z,98282.69
2023-05-16T09:10:46.563Z,98281.34
2023-05-16T09:13:19.119Z,98282.00
2023-05-16T09:16:23.012Z,98285.31
2023-05-16T09:18:59.170Z,98287.91
2023-05-16T09:21:35.940Z,98284.63
2023-05-16T09:24:09.966Z,98289.88
2023-05-16T09:27:15.618Z,98283.97
2023-05-16T09:29:51.881Z,98281.97
2023-05-16T09:32:26.782Z,98282.59
2023-05-16T09:34:59.850Z,98290.53
2023-05-16T09:37:33.685Z,98291.19
2023-05-16T09:40:07.317Z,98284.59
2023-05-16T09:42:40.446Z,98291.84
2023-05-16T09:45:14.431Z,98285.22
2023-05-16T09:47:47.886Z,98291.81
2023-05-16T09:50:20.068Z,98283.91
2023-05-16T09:52:56.113Z,98287.25
2023-05-16T09:55:29.468Z,98296.50
2023-05-16T09:58:04.599Z,98290.59
2023-05-16T10:00:36.983Z,98290.59
2023-05-16T10:03:12.097Z,98302.41
2023-05-16T10:05:44.776Z,98299.16
2023-05-16T10:08:16.981Z,98294.53
2023-05-16T10:10:56.095Z,98297.19
2023-05-16T10:13:34.193Z,98297.13
2023-05-16T10:16:12.426Z,98295.78
2023-05-16T10:18:45.722Z,98299.13
2023-05-16T10:21:19.728Z,98292.50
2023-05-16T10:23:53.398Z,98295.78
2023-05-16T10:26:26.445Z,98298.44
2023-05-16T10:29:03.138Z,98295.09
2023-05-16T10:31:36.171Z,98296.47
2023-05-16T10:34:09.151Z,98308.31
2023-05-16T10:36:41.218Z,98302.41
2023-05-16T10:39:15.598Z,98305.00
2023-05-16T10:41:47.996Z,98300.34
2023-05-16T10:44:21.055Z,98297.72
2023-05-16T10:46:53.017Z,98293.09
2023-05-16T10:49:27.887Z,98297.72
2023-05-16T10:52:09.513Z,98294.44
2023-05-16T10:54:45.370Z,98301.03
2023-05-16T10:57:22.953Z,98301.69
2023-05-16T10:59:59.312Z,98297.72
2023-05-16T11:02:34.773Z,98303.03
2023-05-16T11:05:09.313Z,98295.78
2023-05-16T11:07:41.639Z,98307.63
2023-05-16T11:10:17.518Z,98309.59
2023-05-16T11:12:51.906Z,98306.94
2023-05-16T11:15:28.801Z,98316.78
2023-05-16T11:18:07.166Z,98316.19
2023-05-16T11:20:41.345Z,98312.78
2023-05-16T11:23:22.233Z,98310.16
2023-05-16T11:25:58.088Z,98314.09
2023-05-16T11:28:30.515Z,98313.41
2023-05-16T11:31:05.673Z,98312.81
2023-05-16T11:33:40.040Z,98318.03
2023-05-16T11:36:16.178Z,98318.16
2023-05-16T11:38:48.477Z,98328.69
2023-05-16T11:41:22.939Z,98324.06
2023-05-16T11:43:56.036Z,98325.41
2023-05-16T11:46:28.735Z,98327.38
2023-05-16T11:49:01.178Z,98334.63
2023-05-16T11:51:35.215Z,98327.38
2023-05-16T11:54:09.618Z,98326.00
2023-05-16T11:56:43.211Z,98336.63
2023-05-16T11:59:15.736Z,98333.97
2023-05-16T12:01:51.100Z,98332.03
2023-05-16T12:04:23.564Z,98330.03
2023-05-16T12:07:01.915Z,98338.59
2023-05-16T12:09:34.244Z,98337.97
2023-05-16T12:12:08.273Z,98332.03
2023-05-16T12:14:40.767Z,98343.28
2023-05-16T12:17:14.153Z,98340.00
2023-05-16T12:19:46.551Z,98339.97
2023-05-16T12:22:23.704Z,98344.66
2023-05-16T12:24:55.773Z,98349.91
2023-05-16T12:27:28.910Z,98352.59
2023-05-16T12:30:01.213Z,98355.91
2023-05-16T12:32:37.841Z,98357.84
2023-05-16T12:35:13.519Z,98361.81
2023-05-16T12:37:46.106Z,98359.81
2023-05-16T12:40:20.539Z,98357.22
2023-05-16T12:42:54.044Z,98357.88
2023-05-16T12:45:29.839Z,98351.31
2023-05-16T12:48:08.521Z,98364.47
2023-05-16T12:50:42.294Z,98365.16
2023-05-16T12:53:15.585Z,98369.13
2023-05-16T12:55:48.620Z,98364.53
2023-05-16T12:58:21.102Z,98358.56
2023-05-16T13:00:54.097Z,98365.81
2023-05-16T13:03:26.304Z,98369.75
2023-05-16T13:06:00.258Z,98370.44
2023-05-16T13:08:32.901Z,98377.03
2023-05-16T13:11:06.780Z,98381.66
2023-05-16T13:13:39.347Z,98376.34
2023-05-16T13:16:12.439Z,98381.66
2023-05-16T13:18:44.526Z,98381.63
2023-05-16T13:21:18.036Z,98378.34
2023-05-16T13:23:50.042Z,98382.31
2023-05-16T13:26:22.850Z,98375.09
2023-05-16T13:28:57.913Z,98384.81
2023-05-16T13:31:30.961Z,98385.59
2023-05-16T13:34:03.384Z,98386.94
2023-05-16T13:36:52.422Z,98379.69
2023-05-16T13:39:27.173Z,98394.22
2023-05-16T13:42:00.010Z,98385.66
2023-05-16T13:44:33.603Z,98404.13
2023-05-16T13:47:05.677Z,98406.13
2023-05-16T13:49:39.297Z,98407.44
2023-05-16T13:52:11.899Z,98409.41
2023-05-16T13:54:45.088Z,98418.00
2023-05-16T13:57:17.353Z,98411.38
2023-05-16T14:02:26.438Z,98414.03
2023-05-16T14:04:59.378Z,98425.91
2023-05-16T14:07:31.509Z,98422.63
2023-05-16T14:10:05.408Z,98423.94
2023-05-16T14:12:38.072Z,98432.50
2023-05-16T14:15:11.368Z,98427.91
2023-05-16T14:17:43.784Z,98437.78
2023-05-16T14:20:16.898Z,98437.13
2023-05-16T14:22:48.870Z,98435.13
2023-05-16T14:25:21.511Z,98437.78
2023-05-16T14:27:53.931Z,98443.72
2023-05-16T14:30:27.650Z,98437.13
2023-05-16T14:33:01.257Z,98434.50
2023-05-16T14:35:34.518Z,98443.72
2023-05-16T14:38:07.446Z,98443.06
2023-05-16T14:40:40.533Z,98443.09
2023-05-16T14:43:12.504Z,98445.69
2023-05-16T14:45:45.450Z,98441.75
2023-05-16T14:48:17.985Z,98449.00
2023-05-16T14:50:52.100Z,98446.38
2023-05-16T14:53:24.267Z,98455.59
2023-05-16T14:55:56.956Z,98456.94
2023-05-16T14:58:29.204Z,98451.00
2023-05-16T15:01:02.379Z,98445.03
2023-05-16T15:03:46.849Z,98447.03
2023-05-16T15:06:27.437Z,98458.91
2023-05-16T15:09:00.244Z,98464.19
2023-05-16T15:11:32.316Z,98459.56
2023-05-16T15:14:05.419Z,98462.22
2023-05-16T15:16:37.870Z,98469.44
2023-05-16T15:19:10.920Z,98468.13
2023-05-16T15:21:43.804Z,98466.16
2023-05-16T15:24:17.363Z,98468.13
2023-05-16T15:26:50.055Z,98464.84
2023-05-16T15:29:23.204Z,98470.13
2023-05-16T15:31:55.228Z,98470.75
2023-05-16T15:34:29.148Z,98467.50
2023-05-16T15:37:01.342Z,98468.81
2023-05-16T15:39:34.300Z,98475.41
2023-05-16T15:42:11.072Z,98476.69
2023-05-16T15:44:44.056Z,98476.03
2023-05-16T15:47:16.416Z,98475.38
2023-05-16T15:49:49.489Z,98476.72
2023-05-16T15:52:23.004Z,98477.34
2023-05-16T15:54:55.725Z,98483.28
2023-05-16T15:57:28.134Z,98492.53
2023-05-16T16:00:00.816Z,98485.94
2023-05-16T16:02:32.945Z,98482.63
2023-05-16T16:05:06.158Z,98487.25
2023-05-16T16:07:38.584Z,98487.91
2023-05-16T16:10:12.416Z,98494.53
2023-05-16T16:12:55.623Z,98483.97
2023-05-16T16:15:32.554Z,98489.22
2023-05-16T16:18:06.855Z,98487.88
2023-05-16T16:20:39.653Z,98483.28
2023-05-16T16:23:11.712Z,98489.88
2023-05-16T16:25:44.765Z,98492.50
2023-05-16T16:28:17.255Z,98493.84
2023-05-16T16:30:50.773Z,98487.22
2023-05-16T16:33:23.487Z,98490.53
2023-05-16T16:35:55.897Z,98485.91
2023-05-16T16:38:28.630Z,98487.22
2023-05-16T16:41:01.223Z,98497.09
2023-05-16T16:43:34.209Z,98495.13
2023-05-16T16:46:07.452Z,98502.44
2023-05-16T16:48:41.765Z,98505.06
2023-05-16T16:51:13.720Z,98501.75
2023-05-16T16:53:46.468Z,98510.31
2023-05-16T16:56:19.631Z,98506.38
2023-05-16T16:58:53.583Z,98516.94
2023-05-16T17:01:28.971Z,98516.28
2023-05-16T17:04:03.152Z,98524.19
2023-05-16T17:06:35.593Z,98516.28
2023-05-16T17:09:13.893Z,98506.38
2023-05-16T17:11:50.194Z,98512.94
2023-05-16T17:14:24.575Z,98510.94
2023-05-16T17:16:56.701Z,98516.22
2023-05-16T17:19:29.602Z,98522.19
2023-05-16T17:22:02.325Z,98521.50
2023-05-16T17:24:35.250Z,98528.13
2023-05-16T17:27:07.627Z,98536.03
2023-05-16T17:29:40.568Z,98532.72
2023-05-16T17:32:12.589Z,98536.66
2023-05-16T17:34:45.219Z,98530.72
2023-05-16T17:37:17.753Z,98532.03
2023-05-16T17:39:50.764Z,98532.75
2023-05-16T17:42:22.817Z,98529.44
2023-05-16T17:44:55.461Z,98528.06
2023-05-16T17:47:27.414Z,98527.41
2023-05-16T17:50:00.456Z,98520.81
2023-05-16T17:52:32.876Z,98522.78
2023-05-16T17:55:07.181Z,98524.13
2023-05-16T17:57:39.926Z,98518.84
2023-05-16T18:00:14.965Z,98526.09
2023-05-16T18:02:49.911Z,98537.97
2023-05-16T18:05:22.267Z,98529.38
2023-05-16T18:07:55.158Z,98535.31
2023-05-16T18:10:31.584Z,98533.34
2023-05-16T18:13:12.734Z,98537.97
2023-05-16T18:15:45.526Z,98532.69
2023-05-16T18:18:18.808Z,98538.00
2023-05-16T18:20:53.619Z,98542.56
2023-05-16T18:23:26.121Z,98534.03
2023-05-16T18:25:58.967Z,98532.03
2023-05-16T18:28:30.946Z,98526.78
2023-05-16T18:31:04.125Z,98532.69
2023-05-16T18:33:36.805Z,98539.34
2023-05-16T18:36:09.676Z,98540.72
2023-05-16T18:38:42.042Z,98539.44
2023-05-16T18:41:18.484Z,98535.72
2023-05-16T18:43:51.080Z,98541.88
2023-05-16T18:46:24.141Z,98552.38
2023-05-16T18:48:57.854Z,98550.09
2023-05-16T18:51:31.782Z,98546.63
2023-05-16T18:54:04.227Z,98547.38
2023-05-16T18:56:58.219Z,98553.94
2023-05-16T18:59:30.426Z,98553.94
2023-05-16T19:02:04.364Z,98551.19
2023-05-16T19:04:36.564Z,98563.00
2023-05-16T19:07:10.994Z,98568.91
2023-05-16T19:09:43.406Z,98575.44
2023-05-16T19:12:16.634Z,98573.41
2023-05-16T19:14:49.430Z,98569.44
2023-05-16T19:17:24.673Z,98579.91
2023-05-16T19:19:59.845Z,98584.47
2023-05-16T19:22:32.755Z,98591.78
2023-05-16T19:25:06.609Z,98589.06
2023-05-16T19:27:39.111Z,98591.66
2023-05-16T19:30:14.032Z,98604.06
2023-05-16T19:32:46.667Z,98598.13
2023-05-16T19:35:19.529Z,98604.06
2023-05-16T19:37:52.585Z,98613.25
2023-05-16T19:40:24.727Z,98615.16
2023-05-16T19:45:51.109Z,98630.97
2023-05-16T19:48:27.130Z,98631.03
2023-05-16T19:50:59.858Z,98629.03
2023-05-16T19:53:32.460Z,98623.81
2023-05-16T19:56:05.150Z,98632.28
2023-05-16T19:58:37.644Z,98635.50
2023-05-16T20:01:11.054Z,98640.09
2023-05-16T20:03:44.331Z,98638.78
2023-05-16T20:06:16.868Z,98643.47
2023-05-16T20:08:49.884Z,98638.09
2023-05-16T20:11:23.146Z,98645.38
2023-05-16T20:13:56.472Z,98652.41
2023-05-16T20:16:28.655Z,98665.38
2023-05-16T20:19:02.096Z,98662.78
2023-05-16T20:21:34.515Z,98658.00
2023-05-16T20:24:07.097Z,98661.34
2023-05-16T20:26:40.530Z,98679.09
2023-05-16T20:29:13.366Z,98686.25
2023-05-16T20:31:45.677Z,98677.59
2023-05-16T20:34:17.675Z,98682.22
2023-05-16T20:36:50.487Z,98680.81
2023-05-16T20:39:23.343Z,98680.19
2023-05-16T20:41:56.167Z,98684.81
2023-05-16T20:44:29.709Z,98688.69
2023-05-16T20:47:01.652Z,98684.72
2023-05-16T20:49:37.903Z,98694.47
2023-05-16T20:52:10.513Z,98696.50
2023-05-16T20:54:45.128Z,98700.50
2023-05-16T20:57:18.692Z,98698.09
2023-05-16T20:59:51.442Z,98689.47
2023-05-16T21:02:24.562Z,98697.47
2023-05-16T21:04:59.286Z,98694.84
2023-05-16T21:07:34.873Z,98688.22
2023-05-16T21:10:07.586Z,98688.91
2023-05-16T21:12:39.757Z,98688.28
2023-05-16T21:15:12.547Z,98694.97
2023-05-16T21:17:45.012Z,98692.22
2023-05-16T21:20:17.148Z,98686.16
2023-05-16T21:22:49.957Z,98691.38
2023-05-16T21:25:22.470Z,98689.97
2023-05-16T21:27:54.819Z,98694.47
2023-05-16T21:30:27.693Z,98697.00
2023-05-16T21:33:00.314Z,98700.22
2023-05-16T21:35:32.360Z,98696.22
2023-05-16T21:38:05.182Z,98694.78
2023-05-16T21:40:37.631Z,98696.25
2023-05-16T21:43:09.975Z,98706.13
2023-05-16T21:45:42.853Z,98708.09
2023-05-16T21:48:15.389Z,98712.72
2023-05-16T21:50:48.884Z,98719.19
2023-05-16T21:53:23.963Z,98721.00
2023-05-16T21:55:56.725Z,98716.38
2023-05-16T21:58:29.077Z,98715.59
2023-05-16T22:01:01.301Z,98715.50
2023-05-16T22:03:34.237Z,98724.63
2023-05-16T22:06:06.834Z,98729.84
2023-05-16T22:08:39.194Z,98723.88
2023-05-16T22:11:12.429Z,98726.41
2023-05-16T22:13:44.383Z,98718.44
2023-05-16T22:16:17.670Z,98718.44
2023-05-16T22:18:49.742Z,98726.38
2023-05-16T22:21:23.304Z,98733.66
2023-05-16T22:23:55.244Z,98724.88
2023-05-16T22:26:27.995Z,98736.09
2023-05-16T22:29:00.375Z,98739.41
2023-05-16T22:31:32.329Z,98738.63
2023-05-16T22:34:05.255Z,98735.88
2023-05-16T22:36:37.373Z,98739.81
2023-05-16T22:39:11.064Z,98742.50
2023-05-16T22:41:43.141Z,98740.19
2023-05-16T22:44:16.319Z,98743.50
2023-05-16T22:46:48.825Z,98745.19
2023-05-16T22:49:21.386Z,98748.16
2023-05-16T22:51:53.330Z,98748.00
2023-05-16T22:54:25.769Z,98742.56
2023-05-16T22:56:58.101Z,98752.13
2023-05-16T22:59:31.470Z,98757.06
2023-05-16T23:02:03.834Z,98751.38
2023-05-16T23:04:37.660Z,98746.69
2023-05-16T23:07:09.722Z,98742.28
2023-05-16T23:09:42.479Z,98752.38
2023-05-16T23:12:14.825Z,98757.16
2023-05-16T23:14:47.866Z,98746.91
2023-05-16T23:17:19.929Z,98748.88
2023-05-16T23:19:52.915Z,98748.78
2023-05-16T23:22:25.280Z,98750.22
2023-05-16T23:24:58.477Z,98750.69
2023-05-16T23:27:30.469Z,98754.66
2023-05-16T23:30:03.790Z,98749.53
2023-05-16T23:32:36.568Z,98755.19
2023-05-16T23:35:09.628Z,98742.22
2023-05-16T23:37:41.660Z,98745.59
2023-05-16T23:40:14.730Z,98749.56
2023-05-16T23:42:46.772Z,98747.16
2023-05-16T23:45:19.580Z,98759.91
2023-05-16T23:47:52.054Z,98754.56
2023-05-16T23:50:24.546Z,98751.59
2023-05-16T23:52:56.547Z,98752.38
2023-05-16T23:55:28.652Z,98757.06
2023-05-16T23:58:00.841Z,98764.13
